CYVM

Qikiqtarjuaq Airport

Qikiqtarjuaq, Canada
METAR CYVM 172100Z 20010KT 15SM SKC M23/M26 A2976 RMK SLP081
Observed Flight Rules
Nov-17 @ 21:00 UTC (an hour ago) Visual Flight Rules
Wind Visibility Clouds
200° at 10 knots 15 miles
  • Clear skies
Temperatures Readings
Current -23°C / -9°F
Dewpoint -26°C / -15°F
Humidity 77%
Altimeter 29.76" Hg
Pressure 1008.1 hPa
Elevation 6
METAR CYVM 172100Z 20010KT 15SM SKC M23/M26 A2976 RMK SLP081
Observed Flight Rules
Nov-17 @ 21:00 UTC
(an hour ago)
VFR
Wind Visibility
200° at 10 knots 15 miles
Clouds
  • Clear skies
Temperature Dewpoint
-23°C / -9°F -26°C / -15°F
Humidity Altimeter Pressure
77% 29.76" Hg 1008.1 hPa